sensor_id;sensor_type;location;lat;lon;timestamp;P1;durP1;ratioP1;P2;durP2;ratioP2
33579;SDS011;19909;43.644;-79.438;2023-05-07T00:01:59;0.25;;;0.10;;
33579;SDS011;19909;43.644;-79.438;2023-05-07T00:04:26;0.25;;;0.10;;
33579;SDS011;19909;43.644;-79.438;2023-05-07T00:06:53;0.10;;;0.10;;
33579;SDS011;19909;43.644;-79.438;2023-05-07T00:09:20;0.55;;;0.20;;
33579;SDS011;19909;43.644;-79.438;2023-05-07T00:11:47;0.15;;;0.15;;
33579;SDS011;19909;43.644;-79.438;2023-05-07T00:14:13;0.45;;;0.20;;
33579;SDS011;19909;43.644;-79.438;2023-05-07T00:16:39;0.75;;;0.30;;
33579;SDS011;19909;43.644;-79.438;2023-05-07T00:19:05;0.10;;;0.10;;
33579;SDS011;19909;43.644;-79.438;2023-05-07T00:21:31;0.32;;;0.20;;
33579;SDS011;19909;43.644;-79.438;2023-05-07T00:23:57;0.20;;;0.20;;
33579;SDS011;19909;43.644;-79.438;2023-05-07T00:26:23;0.25;;;0.20;;
33579;SDS011;19909;43.644;-79.438;2023-05-07T00:28:49;0.43;;;0.20;;
33579;SDS011;19909;43.644;-79.438;2023-05-07T00:31:16;1.08;;;0.32;;
33579;SDS011;19909;43.644;-79.438;2023-05-07T00:33:42;0.20;;;0.10;;
33579;SDS011;19909;43.644;-79.438;2023-05-07T00:36:08;0.20;;;0.20;;
33579;SDS011;19909;43.644;-79.438;2023-05-07T00:38:34;0.30;;;0.20;;
33579;SDS011;19909;43.644;-79.438;2023-05-07T00:41:00;0.80;;;0.30;;
33579;SDS011;19909;43.644;-79.438;2023-05-07T00:43:27;0.73;;;0.38;;
33579;SDS011;19909;43.644;-79.438;2023-05-07T00:45:53;0.32;;;0.22;;
33579;SDS011;19909;43.644;-79.438;2023-05-07T00:48:20;0.50;;;0.30;;
33579;SDS011;19909;43.644;-79.438;2023-05-07T00:50:49;0.32;;;0.20;;
33579;SDS011;19909;43.644;-79.438;2023-05-07T00:53:15;0.40;;;0.30;;
33579;SDS011;19909;43.644;-79.438;2023-05-07T00:55:42;0.40;;;0.20;;
33579;SDS011;19909;43.644;-79.438;2023-05-07T00:58:08;0.20;;;0.15;;
33579;SDS011;19909;43.644;-79.438;2023-05-07T01:00:34;0.30;;;0.20;;
33579;SDS011;19909;43.644;-79.438;2023-05-07T01:03:01;0.57;;;0.38;;
33579;SDS011;19909;43.644;-79.438;2023-05-07T01:05:27;0.55;;;0.30;;
33579;SDS011;19909;43.644;-79.438;2023-05-07T01:07:55;0.85;;;0.40;;
33579;SDS011;19909;43.644;-79.438;2023-05-07T01:10:23;0.60;;;0.25;;
33579;SDS011;19909;43.644;-79.438;2023-05-07T01:12:50;0.40;;;0.28;;
33579;SDS011;19909;43.644;-79.438;2023-05-07T01:15:17;0.35;;;0.25;;
33579;SDS011;19909;43.644;-79.438;2023-05-07T01:17:43;1.35;;;0.30;;
33579;SDS011;19909;43.644;-79.438;2023-05-07T01:20:10;0.30;;;0.28;;
33579;SDS011;19909;43.644;-79.438;2023-05-07T01:22:37;1.58;;;0.60;;
33579;SDS011;19909;43.644;-79.438;2023-05-07T01:25:04;0.50;;;0.20;;
33579;SDS011;19909;43.644;-79.438;2023-05-07T01:27:32;0.30;;;0.20;;
33579;SDS011;19909;43.644;-79.438;2023-05-07T01:29:59;1.13;;;0.82;;
33579;SDS011;19909;43.644;-79.438;2023-05-07T01:32:31;0.45;;;0.20;;
33579;SDS011;19909;43.644;-79.438;2023-05-07T01:35:07;0.32;;;0.30;;
33579;SDS011;19909;43.644;-79.438;2023-05-07T01:37:36;0.52;;;0.20;;
33579;SDS011;19909;43.644;-79.438;2023-05-07T01:40:03;0.55;;;0.30;;
33579;SDS011;19909;43.644;-79.438;2023-05-07T01:42:30;0.40;;;0.20;;
33579;SDS011;19909;43.644;-79.438;2023-05-07T01:44:57;0.30;;;0.20;;
33579;SDS011;19909;43.644;-79.438;2023-05-07T01:47:23;0.65;;;0.47;;
33579;SDS011;19909;43.644;-79.438;2023-05-07T01:49:50;0.40;;;0.40;;
33579;SDS011;19909;43.644;-79.438;2023-05-07T01:52:17;0.80;;;0.40;;
33579;SDS011;19909;43.644;-79.438;2023-05-07T01:54:43;0.60;;;0.40;;
33579;SDS011;19909;43.644;-79.438;2023-05-07T01:57:10;0.47;;;0.30;;
33579;SDS011;19909;43.644;-79.438;2023-05-07T01:59:36;0.70;;;0.40;;
33579;SDS011;19909;43.644;-79.438;2023-05-07T02:02:02;0.43;;;0.30;;
33579;SDS011;19909;43.644;-79.438;2023-05-07T02:04:28;0.40;;;0.30;;
33579;SDS011;19909;43.644;-79.438;2023-05-07T02:06:55;0.75;;;0.40;;
33579;SDS011;19909;43.644;-79.438;2023-05-07T02:09:21;0.70;;;0.52;;
33579;SDS011;19909;43.644;-79.438;2023-05-07T02:11:48;0.90;;;0.50;;
33579;SDS011;19909;43.644;-79.438;2023-05-07T02:14:14;1.13;;;0.60;;
33579;SDS011;19909;43.644;-79.438;2023-05-07T02:16:40;0.70;;;0.50;;
33579;SDS011;19909;43.644;-79.438;2023-05-07T02:19:07;0.50;;;0.40;;
33579;SDS011;19909;43.644;-79.438;2023-05-07T02:21:33;1.00;;;0.35;;
33579;SDS011;19909;43.644;-79.438;2023-05-07T02:23:59;0.60;;;0.50;;
33579;SDS011;19909;43.644;-79.438;2023-05-07T02:26:25;0.98;;;0.80;;
33579;SDS011;19909;43.644;-79.438;2023-05-07T02:28:51;0.85;;;0.55;;
33579;SDS011;19909;43.644;-79.438;2023-05-07T02:31:19;1.20;;;0.63;;
33579;SDS011;19909;43.644;-79.438;2023-05-07T02:33:45;1.30;;;0.50;;
33579;SDS011;19909;43.644;-79.438;2023-05-07T02:36:11;0.73;;;0.52;;
33579;SDS011;19909;43.644;-79.438;2023-05-07T02:38:38;0.95;;;0.60;;
33579;SDS011;19909;43.644;-79.438;2023-05-07T02:41:04;1.40;;;0.80;;
33579;SDS011;19909;43.644;-79.438;2023-05-07T02:43:30;0.52;;;0.50;;
33579;SDS011;19909;43.644;-79.438;2023-05-07T02:46:00;1.67;;;0.73;;
33579;SDS011;19909;43.644;-79.438;2023-05-07T02:48:28;2.33;;;0.85;;
33579;SDS011;19909;43.644;-79.438;2023-05-07T02:50:54;1.33;;;0.65;;
33579;SDS011;19909;43.644;-79.438;2023-05-07T02:53:20;1.20;;;0.95;;
33579;SDS011;19909;43.644;-79.438;2023-05-07T02:55:46;1.55;;;0.90;;
33579;SDS011;19909;43.644;-79.438;2023-05-07T02:58:12;0.80;;;0.60;;
33579;SDS011;19909;43.644;-79.438;2023-05-07T03:00:38;1.30;;;0.70;;
33579;SDS011;19909;43.644;-79.438;2023-05-07T03:03:05;1.20;;;0.82;;
33579;SDS011;19909;43.644;-79.438;2023-05-07T03:05:31;1.48;;;0.75;;
33579;SDS011;19909;43.644;-79.438;2023-05-07T03:07:57;0.90;;;0.80;;
33579;SDS011;19909;43.644;-79.438;2023-05-07T03:10:24;1.85;;;0.90;;
33579;SDS011;19909;43.644;-79.438;2023-05-07T03:12:50;1.73;;;1.10;;
33579;SDS011;19909;43.644;-79.438;2023-05-07T03:15:16;2.25;;;1.10;;
33579;SDS011;19909;43.644;-79.438;2023-05-07T03:17:42;1.55;;;1.08;;
33579;SDS011;19909;43.644;-79.438;2023-05-07T03:20:08;1.48;;;0.88;;
33579;SDS011;19909;43.644;-79.438;2023-05-07T03:22:36;2.25;;;1.45;;
33579;SDS011;19909;43.644;-79.438;2023-05-07T03:25:02;2.58;;;1.00;;
33579;SDS011;19909;43.644;-79.438;2023-05-07T03:27:28;1.17;;;1.02;;
33579;SDS011;19909;43.644;-79.438;2023-05-07T03:29:54;2.90;;;1.17;;
33579;SDS011;19909;43.644;-79.438;2023-05-07T03:32:20;1.63;;;1.20;;
33579;SDS011;19909;43.644;-79.438;2023-05-07T03:34:46;1.30;;;0.98;;
33579;SDS011;19909;43.644;-79.438;2023-05-07T03:37:13;1.10;;;0.90;;
33579;SDS011;19909;43.644;-79.438;2023-05-07T03:39:39;0.93;;;0.70;;
33579;SDS011;19909;43.644;-79.438;2023-05-07T03:42:05;2.15;;;1.20;;
33579;SDS011;19909;43.644;-79.438;2023-05-07T03:44:31;1.85;;;1.33;;
33579;SDS011;19909;43.644;-79.438;2023-05-07T03:46:57;4.25;;;1.25;;
33579;SDS011;19909;43.644;-79.438;2023-05-07T03:49:24;2.65;;;1.30;;
33579;SDS011;19909;43.644;-79.438;2023-05-07T03:51:50;1.25;;;1.00;;
33579;SDS011;19909;43.644;-79.438;2023-05-07T03:54:16;1.83;;;1.15;;
33579;SDS011;19909;43.644;-79.438;2023-05-07T03:56:42;2.55;;;1.15;;
33579;SDS011;19909;43.644;-79.438;2023-05-07T03:59:08;1.42;;;1.00;;
33579;SDS011;19909;43.644;-79.438;2023-05-07T04:01:34;1.80;;;1.20;;
33579;SDS011;19909;43.644;-79.438;2023-05-07T04:04:01;1.70;;;1.25;;
33579;SDS011;19909;43.644;-79.438;2023-05-07T04:06:28;2.58;;;1.50;;
33579;SDS011;19909;43.644;-79.438;2023-05-07T04:08:54;2.00;;;1.67;;
33579;SDS011;19909;43.644;-79.438;2023-05-07T04:11:20;2.28;;;1.20;;
33579;SDS011;19909;43.644;-79.438;2023-05-07T04:13:46;2.90;;;1.50;;
33579;SDS011;19909;43.644;-79.438;2023-05-07T04:16:12;2.00;;;1.60;;
33579;SDS011;19909;43.644;-79.438;2023-05-07T04:18:39;2.72;;;1.58;;
33579;SDS011;19909;43.644;-79.438;2023-05-07T04:21:05;2.63;;;1.52;;
33579;SDS011;19909;43.644;-79.438;2023-05-07T04:23:38;2.25;;;1.55;;
33579;SDS011;19909;43.644;-79.438;2023-05-07T04:26:05;1.85;;;1.13;;
33579;SDS011;19909;43.644;-79.438;2023-05-07T04:28:31;2.15;;;1.40;;
33579;SDS011;19909;43.644;-79.438;2023-05-07T04:30:57;3.10;;;1.30;;
33579;SDS011;19909;43.644;-79.438;2023-05-07T04:33:23;3.30;;;1.77;;
33579;SDS011;19909;43.644;-79.438;2023-05-07T04:35:50;3.63;;;1.75;;
33579;SDS011;19909;43.644;-79.438;2023-05-07T04:38:16;2.22;;;1.38;;
33579;SDS011;19909;43.644;-79.438;2023-05-07T04:40:43;2.10;;;1.70;;
33579;SDS011;19909;43.644;-79.438;2023-05-07T04:43:10;3.92;;;2.00;;
33579;SDS011;19909;43.644;-79.438;2023-05-07T04:45:36;1.98;;;1.50;;
33579;SDS011;19909;43.644;-79.438;2023-05-07T04:48:05;2.00;;;1.67;;
33579;SDS011;19909;43.644;-79.438;2023-05-07T04:50:31;2.55;;;1.95;;
33579;SDS011;19909;43.644;-79.438;2023-05-07T04:52:57;3.60;;;1.95;;
33579;SDS011;19909;43.644;-79.438;2023-05-07T04:55:23;1.70;;;1.60;;
33579;SDS011;19909;43.644;-79.438;2023-05-07T04:57:49;2.33;;;1.77;;
33579;SDS011;19909;43.644;-79.438;2023-05-07T05:00:17;3.92;;;1.83;;
33579;SDS011;19909;43.644;-79.438;2023-05-07T05:02:45;2.20;;;1.83;;
33579;SDS011;19909;43.644;-79.438;2023-05-07T05:05:11;2.55;;;2.10;;
33579;SDS011;19909;43.644;-79.438;2023-05-07T05:07:37;2.15;;;1.73;;
33579;SDS011;19909;43.644;-79.438;2023-05-07T05:10:04;4.72;;;2.15;;
33579;SDS011;19909;43.644;-79.438;2023-05-07T05:12:31;4.28;;;2.10;;
33579;SDS011;19909;43.644;-79.438;2023-05-07T05:14:57;3.70;;;2.22;;
33579;SDS011;19909;43.644;-79.438;2023-05-07T05:17:23;2.30;;;2.00;;
33579;SDS011;19909;43.644;-79.438;2023-05-07T05:19:49;2.85;;;2.10;;
33579;SDS011;19909;43.644;-79.438;2023-05-07T05:22:16;3.30;;;2.42;;
33579;SDS011;19909;43.644;-79.438;2023-05-07T05:24:42;3.05;;;2.25;;
33579;SDS011;19909;43.644;-79.438;2023-05-07T05:27:08;3.50;;;2.08;;
33579;SDS011;19909;43.644;-79.438;2023-05-07T05:29:34;4.85;;;2.15;;
33579;SDS011;19909;43.644;-79.438;2023-05-07T05:32:00;2.47;;;2.20;;
33579;SDS011;19909;43.644;-79.438;2023-05-07T05:34:26;3.30;;;2.15;;
33579;SDS011;19909;43.644;-79.438;2023-05-07T05:36:53;3.50;;;2.17;;
33579;SDS011;19909;43.644;-79.438;2023-05-07T05:39:19;5.38;;;2.40;;
33579;SDS011;19909;43.644;-79.438;2023-05-07T05:41:46;2.53;;;2.15;;
33579;SDS011;19909;43.644;-79.438;2023-05-07T05:44:12;5.93;;;2.38;;
33579;SDS011;19909;43.644;-79.438;2023-05-07T05:46:38;3.85;;;2.50;;
33579;SDS011;19909;43.644;-79.438;2023-05-07T05:49:05;3.33;;;2.28;;
33579;SDS011;19909;43.644;-79.438;2023-05-07T05:51:31;5.00;;;2.10;;
33579;SDS011;19909;43.644;-79.438;2023-05-07T05:53:57;3.38;;;2.45;;
33579;SDS011;19909;43.644;-79.438;2023-05-07T05:56:23;3.03;;;2.20;;
33579;SDS011;19909;43.644;-79.438;2023-05-07T05:58:49;4.15;;;2.08;;
33579;SDS011;19909;43.644;-79.438;2023-05-07T06:01:16;4.05;;;2.72;;
33579;SDS011;19909;43.644;-79.438;2023-05-07T06:03:43;3.03;;;2.35;;
33579;SDS011;19909;43.644;-79.438;2023-05-07T06:06:10;3.35;;;2.50;;
33579;SDS011;19909;43.644;-79.438;2023-05-07T06:08:36;3.35;;;2.13;;
33579;SDS011;19909;43.644;-79.438;2023-05-07T06:11:02;2.53;;;2.33;;
33579;SDS011;19909;43.644;-79.438;2023-05-07T06:13:28;2.90;;;2.60;;
33579;SDS011;19909;43.644;-79.438;2023-05-07T06:15:55;4.65;;;3.17;;
33579;SDS011;19909;43.644;-79.438;2023-05-07T06:18:21;3.60;;;2.58;;
33579;SDS011;19909;43.644;-79.438;2023-05-07T06:20:47;3.58;;;2.78;;
33579;SDS011;19909;43.644;-79.438;2023-05-07T06:23:13;4.65;;;3.20;;
33579;SDS011;19909;43.644;-79.438;2023-05-07T06:25:40;3.20;;;2.58;;
33579;SDS011;19909;43.644;-79.438;2023-05-07T06:28:06;2.97;;;2.10;;
33579;SDS011;19909;43.644;-79.438;2023-05-07T06:30:34;3.65;;;2.33;;
33579;SDS011;19909;43.644;-79.438;2023-05-07T06:33:00;5.00;;;2.60;;
33579;SDS011;19909;43.644;-79.438;2023-05-07T06:35:26;4.53;;;2.92;;
33579;SDS011;19909;43.644;-79.438;2023-05-07T06:37:52;3.45;;;2.70;;
33579;SDS011;19909;43.644;-79.438;2023-05-07T06:40:19;3.90;;;2.40;;
33579;SDS011;19909;43.644;-79.438;2023-05-07T06:42:45;3.42;;;2.65;;
33579;SDS011;19909;43.644;-79.438;2023-05-07T06:45:11;3.47;;;2.83;;
33579;SDS011;19909;43.644;-79.438;2023-05-07T06:47:37;3.42;;;2.75;;
33579;SDS011;19909;43.644;-79.438;2023-05-07T06:50:03;3.60;;;2.78;;
33579;SDS011;19909;43.644;-79.438;2023-05-07T06:52:30;4.25;;;3.10;;
33579;SDS011;19909;43.644;-79.438;2023-05-07T06:54:56;3.15;;;2.85;;
33579;SDS011;19909;43.644;-79.438;2023-05-07T06:57:22;3.50;;;2.70;;
33579;SDS011;19909;43.644;-79.438;2023-05-07T06:59:49;2.40;;;2.03;;
33579;SDS011;19909;43.644;-79.438;2023-05-07T07:02:15;3.88;;;2.67;;
33579;SDS011;19909;43.644;-79.438;2023-05-07T07:04:41;4.10;;;2.75;;
33579;SDS011;19909;43.644;-79.438;2023-05-07T07:07:07;3.38;;;2.78;;
33579;SDS011;19909;43.644;-79.438;2023-05-07T07:09:33;4.45;;;3.05;;
33579;SDS011;19909;43.644;-79.438;2023-05-07T07:12:00;4.45;;;2.53;;
33579;SDS011;19909;43.644;-79.438;2023-05-07T07:14:26;3.22;;;2.40;;
33579;SDS011;19909;43.644;-79.438;2023-05-07T07:16:52;4.50;;;3.13;;
33579;SDS011;19909;43.644;-79.438;2023-05-07T07:19:18;4.80;;;3.13;;
33579;SDS011;19909;43.644;-79.438;2023-05-07T07:21:45;3.05;;;2.65;;
33579;SDS011;19909;43.644;-79.438;2023-05-07T07:24:12;3.40;;;2.90;;
33579;SDS011;19909;43.644;-79.438;2023-05-07T07:26:44;3.75;;;2.83;;
33579;SDS011;19909;43.644;-79.438;2023-05-07T07:29:10;4.10;;;2.55;;
33579;SDS011;19909;43.644;-79.438;2023-05-07T07:31:36;3.80;;;2.88;;
33579;SDS011;19909;43.644;-79.438;2023-05-07T07:34:03;3.63;;;2.95;;
33579;SDS011;19909;43.644;-79.438;2023-05-07T07:36:29;4.35;;;3.20;;
33579;SDS011;19909;43.644;-79.438;2023-05-07T07:38:55;3.90;;;2.90;;
33579;SDS011;19909;43.644;-79.438;2023-05-07T07:41:21;4.28;;;2.70;;
33579;SDS011;19909;43.644;-79.438;2023-05-07T07:43:47;4.50;;;2.80;;
33579;SDS011;19909;43.644;-79.438;2023-05-07T07:46:13;3.30;;;2.90;;
33579;SDS011;19909;43.644;-79.438;2023-05-07T07:48:39;4.00;;;3.13;;
33579;SDS011;19909;43.644;-79.438;2023-05-07T07:51:06;4.88;;;3.30;;
33579;SDS011;19909;43.644;-79.438;2023-05-07T07:53:32;5.05;;;3.25;;
33579;SDS011;19909;43.644;-79.438;2023-05-07T07:55:58;4.60;;;3.05;;
33579;SDS011;19909;43.644;-79.438;2023-05-07T07:58:24;4.43;;;3.10;;
33579;SDS011;19909;43.644;-79.438;2023-05-07T08:00:51;4.10;;;3.42;;
33579;SDS011;19909;43.644;-79.438;2023-05-07T08:03:17;3.47;;;2.50;;
33579;SDS011;19909;43.644;-79.438;2023-05-07T08:05:44;4.20;;;2.67;;
33579;SDS011;19909;43.644;-79.438;2023-05-07T08:08:10;3.83;;;2.72;;
33579;SDS011;19909;43.644;-79.438;2023-05-07T08:10:37;3.33;;;2.80;;
33579;SDS011;19909;43.644;-79.438;2023-05-07T08:13:04;4.75;;;3.00;;
33579;SDS011;19909;43.644;-79.438;2023-05-07T08:15:31;4.25;;;3.45;;
33579;SDS011;19909;43.644;-79.438;2023-05-07T08:17:57;4.88;;;3.45;;
33579;SDS011;19909;43.644;-79.438;2023-05-07T08:20:25;4.05;;;2.50;;
33579;SDS011;19909;43.644;-79.438;2023-05-07T08:22:51;4.82;;;3.15;;
33579;SDS011;19909;43.644;-79.438;2023-05-07T08:25:18;3.85;;;3.03;;
33579;SDS011;19909;43.644;-79.438;2023-05-07T08:27:44;4.03;;;2.78;;
33579;SDS011;19909;43.644;-79.438;2023-05-07T08:30:10;3.50;;;2.92;;
33579;SDS011;19909;43.644;-79.438;2023-05-07T08:32:37;4.65;;;3.38;;
33579;SDS011;19909;43.644;-79.438;2023-05-07T08:35:03;3.97;;;2.75;;
33579;SDS011;19909;43.644;-79.438;2023-05-07T08:37:30;2.70;;;2.50;;
33579;SDS011;19909;43.644;-79.438;2023-05-07T08:39:56;4.32;;;3.10;;
33579;SDS011;19909;43.644;-79.438;2023-05-07T08:42:23;3.40;;;2.85;;
33579;SDS011;19909;43.644;-79.438;2023-05-07T08:44:50;4.72;;;3.17;;
33579;SDS011;19909;43.644;-79.438;2023-05-07T08:47:20;3.30;;;2.92;;
33579;SDS011;19909;43.644;-79.438;2023-05-07T08:49:48;3.97;;;2.80;;
33579;SDS011;19909;43.644;-79.438;2023-05-07T08:52:15;4.88;;;3.10;;
33579;SDS011;19909;43.644;-79.438;2023-05-07T08:54:41;5.43;;;3.78;;
33579;SDS011;19909;43.644;-79.438;2023-05-07T08:57:08;3.85;;;2.90;;
33579;SDS011;19909;43.644;-79.438;2023-05-07T08:59:34;3.80;;;2.63;;
33579;SDS011;19909;43.644;-79.438;2023-05-07T09:02:01;3.13;;;2.65;;
33579;SDS011;19909;43.644;-79.438;2023-05-07T09:04:28;3.08;;;2.70;;
33579;SDS011;19909;43.644;-79.438;2023-05-07T09:06:54;5.18;;;2.92;;
33579;SDS011;19909;43.644;-79.438;2023-05-07T09:09:21;4.53;;;2.90;;
33579;SDS011;19909;43.644;-79.438;2023-05-07T09:11:47;3.45;;;2.95;;
33579;SDS011;19909;43.644;-79.438;2023-05-07T09:14:13;4.93;;;3.10;;
33579;SDS011;19909;43.644;-79.438;2023-05-07T09:16:39;3.38;;;2.60;;
33579;SDS011;19909;43.644;-79.438;2023-05-07T09:19:06;2.97;;;2.67;;
33579;SDS011;19909;43.644;-79.438;2023-05-07T09:21:32;2.92;;;2.30;;
33579;SDS011;19909;43.644;-79.438;2023-05-07T09:23:58;4.55;;;2.95;;
33579;SDS011;19909;43.644;-79.438;2023-05-07T09:26:24;3.72;;;2.60;;
33579;SDS011;19909;43.644;-79.438;2023-05-07T09:28:52;2.75;;;2.20;;
33579;SDS011;19909;43.644;-79.438;2023-05-07T09:31:19;4.03;;;3.13;;
33579;SDS011;19909;43.644;-79.438;2023-05-07T09:33:45;3.33;;;2.22;;
33579;SDS011;19909;43.644;-79.438;2023-05-07T09:36:11;4.70;;;2.90;;
33579;SDS011;19909;43.644;-79.438;2023-05-07T09:38:37;5.20;;;2.80;;
33579;SDS011;19909;43.644;-79.438;2023-05-07T09:41:05;4.22;;;3.28;;
33579;SDS011;19909;43.644;-79.438;2023-05-07T09:43:36;2.85;;;2.40;;
33579;SDS011;19909;43.644;-79.438;2023-05-07T09:46:08;3.80;;;3.00;;
33579;SDS011;19909;43.644;-79.438;2023-05-07T09:48:41;3.25;;;2.70;;
33579;SDS011;19909;43.644;-79.438;2023-05-07T09:51:15;3.53;;;2.80;;
33579;SDS011;19909;43.644;-79.438;2023-05-07T09:54:03;4.38;;;3.17;;
33579;SDS011;19909;43.644;-79.438;2023-05-07T09:56:31;4.95;;;3.10;;
33579;SDS011;19909;43.644;-79.438;2023-05-07T09:59:01;3.10;;;2.42;;
33579;SDS011;19909;43.644;-79.438;2023-05-07T10:01:31;3.15;;;2.60;;
33579;SDS011;19909;43.644;-79.438;2023-05-07T10:03:58;5.93;;;3.00;;
33579;SDS011;19909;43.644;-79.438;2023-05-07T10:06:27;3.92;;;2.63;;
33579;SDS011;19909;43.644;-79.438;2023-05-07T10:08:55;3.70;;;2.22;;
33579;SDS011;19909;43.644;-79.438;2023-05-07T10:11:21;2.85;;;2.38;;
33579;SDS011;19909;43.644;-79.438;2023-05-07T10:13:48;3.75;;;2.88;;
33579;SDS011;19909;43.644;-79.438;2023-05-07T10:16:15;3.17;;;2.30;;
33579;SDS011;19909;43.644;-79.438;2023-05-07T10:18:42;4.15;;;3.05;;
33579;SDS011;19909;43.644;-79.438;2023-05-07T10:21:19;3.45;;;2.70;;
33579;SDS011;19909;43.644;-79.438;2023-05-07T10:23:50;4.30;;;3.15;;
33579;SDS011;19909;43.644;-79.438;2023-05-07T10:26:42;5.97;;;3.03;;
33579;SDS011;19909;43.644;-79.438;2023-05-07T10:29:15;4.30;;;2.60;;
33579;SDS011;19909;43.644;-79.438;2023-05-07T10:34:50;3.45;;;2.50;;
33579;SDS011;19909;43.644;-79.438;2023-05-07T10:37:20;4.20;;;2.63;;
33579;SDS011;19909;43.644;-79.438;2023-05-07T10:39:47;4.25;;;2.42;;
33579;SDS011;19909;43.644;-79.438;2023-05-07T10:42:14;4.35;;;2.97;;
33579;SDS011;19909;43.644;-79.438;2023-05-07T10:44:40;3.40;;;2.67;;
33579;SDS011;19909;43.644;-79.438;2023-05-07T10:47:07;3.53;;;2.63;;
33579;SDS011;19909;43.644;-79.438;2023-05-07T10:54:41;2.83;;;2.45;;
33579;SDS011;19909;43.644;-79.438;2023-05-07T10:59:56;4.53;;;2.30;;
33579;SDS011;19909;43.644;-79.438;2023-05-07T11:02:23;3.85;;;2.28;;
33579;SDS011;19909;43.644;-79.438;2023-05-07T11:05:21;3.72;;;2.58;;
33579;SDS011;19909;43.644;-79.438;2023-05-07T11:07:54;4.97;;;2.70;;
33579;SDS011;19909;43.644;-79.438;2023-05-07T11:10:22;3.38;;;2.40;;
33579;SDS011;19909;43.644;-79.438;2023-05-07T11:12:49;3.95;;;2.72;;
33579;SDS011;19909;43.644;-79.438;2023-05-07T11:15:32;2.58;;;2.13;;
33579;SDS011;19909;43.644;-79.438;2023-05-07T11:18:03;3.08;;;2.45;;
33579;SDS011;19909;43.644;-79.438;2023-05-07T11:26:02;2.83;;;2.13;;
33579;SDS011;19909;43.644;-79.438;2023-05-07T11:28:38;2.88;;;1.83;;
33579;SDS011;19909;43.644;-79.438;2023-05-07T11:31:05;2.95;;;2.13;;
33579;SDS011;19909;43.644;-79.438;2023-05-07T11:33:31;2.45;;;2.15;;
33579;SDS011;19909;43.644;-79.438;2023-05-07T11:35:57;3.05;;;1.98;;
33579;SDS011;19909;43.644;-79.438;2023-05-07T11:38:25;3.95;;;2.42;;
33579;SDS011;19909;43.644;-79.438;2023-05-07T11:40:52;4.47;;;2.45;;
33579;SDS011;19909;43.644;-79.438;2023-05-07T11:43:20;3.70;;;2.25;;
33579;SDS011;19909;43.644;-79.438;2023-05-07T11:45:46;2.90;;;1.98;;
33579;SDS011;19909;43.644;-79.438;2023-05-07T11:48:13;3.72;;;2.38;;
33579;SDS011;19909;43.644;-79.438;2023-05-07T11:50:50;2.67;;;2.15;;
33579;SDS011;19909;43.644;-79.438;2023-05-07T11:53:25;2.47;;;2.28;;
33579;SDS011;19909;43.644;-79.438;2023-05-07T11:55:53;3.42;;;2.10;;
33579;SDS011;19909;43.644;-79.438;2023-05-07T11:58:23;3.13;;;2.33;;
33579;SDS011;19909;43.644;-79.438;2023-05-07T12:00:51;2.03;;;1.80;;
33579;SDS011;19909;43.644;-79.438;2023-05-07T12:03:18;1.88;;;1.55;;
33579;SDS011;19909;43.644;-79.438;2023-05-07T12:05:45;2.03;;;1.67;;
33579;SDS011;19909;43.644;-79.438;2023-05-07T12:08:15;3.17;;;1.90;;
33579;SDS011;19909;43.644;-79.438;2023-05-07T12:10:42;2.33;;;1.67;;
33579;SDS011;19909;43.644;-79.438;2023-05-07T12:13:23;2.40;;;1.85;;
33579;SDS011;19909;43.644;-79.438;2023-05-07T12:15:54;2.00;;;1.60;;
33579;SDS011;19909;43.644;-79.438;2023-05-07T12:18:21;3.63;;;2.63;;
33579;SDS011;19909;43.644;-79.438;2023-05-07T12:20:48;4.15;;;1.90;;
33579;SDS011;19909;43.644;-79.438;2023-05-07T12:23:15;3.83;;;2.47;;
33579;SDS011;19909;43.644;-79.438;2023-05-07T12:25:42;2.78;;;1.83;;
33579;SDS011;19909;43.644;-79.438;2023-05-07T12:28:17;3.80;;;2.10;;
33579;SDS011;19909;43.644;-79.438;2023-05-07T12:30:48;1.85;;;1.50;;
33579;SDS011;19909;43.644;-79.438;2023-05-07T12:33:17;3.00;;;2.10;;
33579;SDS011;19909;43.644;-79.438;2023-05-07T12:35:47;2.85;;;2.03;;
33579;SDS011;19909;43.644;-79.438;2023-05-07T12:38:13;1.98;;;1.58;;
33579;SDS011;19909;43.644;-79.438;2023-05-07T12:40:46;1.90;;;1.50;;
33579;SDS011;19909;43.644;-79.438;2023-05-07T12:43:26;2.25;;;1.65;;
33579;SDS011;19909;43.644;-79.438;2023-05-07T12:45:54;1.75;;;1.40;;
33579;SDS011;19909;43.644;-79.438;2023-05-07T12:48:21;2.05;;;1.85;;
33579;SDS011;19909;43.644;-79.438;2023-05-07T12:50:51;2.33;;;1.80;;
33579;SDS011;19909;43.644;-79.438;2023-05-07T12:53:20;2.63;;;1.88;;
33579;SDS011;19909;43.644;-79.438;2023-05-07T12:55:48;1.95;;;1.30;;
33579;SDS011;19909;43.644;-79.438;2023-05-07T13:00:44;1.73;;;1.17;;
33579;SDS011;19909;43.644;-79.438;2023-05-07T13:03:15;3.22;;;1.80;;
33579;SDS011;19909;43.644;-79.438;2023-05-07T13:05:48;1.52;;;1.13;;
33579;SDS011;19909;43.644;-79.438;2023-05-07T13:08:23;1.88;;;1.70;;
33579;SDS011;19909;43.644;-79.438;2023-05-07T13:11:10;1.67;;;1.55;;
33579;SDS011;19909;43.644;-79.438;2023-05-07T13:13:37;1.40;;;1.10;;
33579;SDS011;19909;43.644;-79.438;2023-05-07T13:16:05;1.63;;;1.52;;
33579;SDS011;19909;43.644;-79.438;2023-05-07T13:18:33;1.55;;;1.30;;
33579;SDS011;19909;43.644;-79.438;2023-05-07T13:21:00;1.80;;;1.35;;
33579;SDS011;19909;43.644;-79.438;2023-05-07T13:23:27;1.55;;;1.30;;
33579;SDS011;19909;43.644;-79.438;2023-05-07T13:25:53;1.13;;;0.93;;
33579;SDS011;19909;43.644;-79.438;2023-05-07T13:28:20;1.45;;;1.20;;
33579;SDS011;19909;43.644;-79.438;2023-05-07T13:30:47;2.00;;;1.10;;
33579;SDS011;19909;43.644;-79.438;2023-05-07T13:33:13;1.75;;;1.25;;
33579;SDS011;19909;43.644;-79.438;2023-05-07T13:35:41;1.58;;;1.10;;
33579;SDS011;19909;43.644;-79.438;2023-05-07T13:38:07;1.92;;;1.33;;
33579;SDS011;19909;43.644;-79.438;2023-05-07T13:40:33;0.70;;;0.70;;
33579;SDS011;19909;43.644;-79.438;2023-05-07T13:43:00;1.58;;;1.10;;
33579;SDS011;19909;43.644;-79.438;2023-05-07T13:45:29;1.77;;;1.13;;
33579;SDS011;19909;43.644;-79.438;2023-05-07T13:47:55;1.23;;;1.00;;
33579;SDS011;19909;43.644;-79.438;2023-05-07T13:50:22;1.42;;;0.80;;
33579;SDS011;19909;43.644;-79.438;2023-05-07T13:52:49;1.00;;;0.90;;
33579;SDS011;19909;43.644;-79.438;2023-05-07T13:55:18;2.08;;;1.05;;
33579;SDS011;19909;43.644;-79.438;2023-05-07T13:57:44;1.33;;;0.90;;
33579;SDS011;19909;43.644;-79.438;2023-05-07T14:00:11;0.85;;;0.70;;
33579;SDS011;19909;43.644;-79.438;2023-05-07T14:02:39;2.20;;;1.00;;
33579;SDS011;19909;43.644;-79.438;2023-05-07T14:05:06;1.20;;;0.80;;
33579;SDS011;19909;43.644;-79.438;2023-05-07T14:07:33;0.73;;;0.65;;
33579;SDS011;19909;43.644;-79.438;2023-05-07T14:09:59;1.25;;;0.80;;
33579;SDS011;19909;43.644;-79.438;2023-05-07T14:12:25;0.95;;;0.77;;
33579;SDS011;19909;43.644;-79.438;2023-05-07T14:14:51;0.82;;;0.60;;
33579;SDS011;19909;43.644;-79.438;2023-05-07T14:17:17;0.88;;;0.77;;
33579;SDS011;19909;43.644;-79.438;2023-05-07T14:19:45;1.92;;;0.95;;
33579;SDS011;19909;43.644;-79.438;2023-05-07T14:22:12;2.08;;;1.05;;
33579;SDS011;19909;43.644;-79.438;2023-05-07T14:24:40;1.33;;;0.70;;
33579;SDS011;19909;43.644;-79.438;2023-05-07T14:27:06;1.15;;;0.60;;
33579;SDS011;19909;43.644;-79.438;2023-05-07T14:29:32;1.38;;;0.60;;
33579;SDS011;19909;43.644;-79.438;2023-05-07T14:32:00;1.10;;;0.50;;
33579;SDS011;19909;43.644;-79.438;2023-05-07T14:34:28;1.67;;;0.40;;
33579;SDS011;19909;43.644;-79.438;2023-05-07T14:36:54;1.52;;;0.60;;
33579;SDS011;19909;43.644;-79.438;2023-05-07T14:39:20;0.45;;;0.45;;
33579;SDS011;19909;43.644;-79.438;2023-05-07T14:41:47;0.70;;;0.55;;